Terminal Aerodrome Forecast
Issued by NWS

Home | Current Version | Previous Version | Text Only | Print | Product List | Glossary On
Versions: 1 2 3 4 5 6 7 8 9 10 11 12 13 14 15 16 17 18 19
000
FTAK31 PAJN 041740
TAFAWG
TAF
PAWG 041740Z 0418/0518 VRB03KT 6SM -SHRA BR SCT001 BKN010 OVC050
     FM042100 VRB05KT P6SM -SHRA SCT020 BKN040 BKN080
     FM050300 VRB03KT P6SM VCSH SCT025 BKN050
     FM051000 00000KT P6SM VCSH BKN050
     FM051500 VRB03KT P6SM VCSH SCT025 OVC050=

USA.gov is the U.S. government's official web portal to all federal, state and local government web resources and services.